sensor_id;sensor_type;location;lat;lon;timestamp;temperature;humidity
67722;SHT31;58309;45.292;11.820;2022-12-29T00:02:08;7.16;99.71
67722;SHT31;58309;45.292;11.820;2022-12-29T00:04:34;7.18;99.75
67722;SHT31;58309;45.292;11.820;2022-12-29T00:06:59;7.15;99.61
67722;SHT31;58309;45.292;11.820;2022-12-29T00:09:25;7.14;99.52
67722;SHT31;58309;45.292;11.820;2022-12-29T00:11:51;7.14;99.40
67722;SHT31;58309;45.292;11.820;2022-12-29T00:14:17;7.08;99.45
67722;SHT31;58309;45.292;11.820;2022-12-29T00:17:01;7.08;99.51
67722;SHT31;58309;45.292;11.820;2022-12-29T00:19:27;7.07;99.50
67722;SHT31;58309;45.292;11.820;2022-12-29T00:22:13;7.01;99.55
67722;SHT31;58309;45.292;11.820;2022-12-29T00:24:57;7.02;99.57
67722;SHT31;58309;45.292;11.820;2022-12-29T00:27:41;7.05;99.60
67722;SHT31;58309;45.292;11.820;2022-12-29T00:30:25;7.02;99.60
67722;SHT31;58309;45.292;11.820;2022-12-29T00:33:15;7.02;99.48
67722;SHT31;58309;45.292;11.820;2022-12-29T00:36:01;7.05;99.44
67722;SHT31;58309;45.292;11.820;2022-12-29T00:38:28;7.04;99.31
67722;SHT31;58309;45.292;11.820;2022-12-29T00:41:13;7.04;99.33
67722;SHT31;58309;45.292;11.820;2022-12-29T00:43:57;6.99;99.45
67722;SHT31;58309;45.292;11.820;2022-12-29T00:46:36;6.99;99.36
67722;SHT31;58309;45.292;11.820;2022-12-29T00:49:03;6.98;99.41
67722;SHT31;58309;45.292;11.820;2022-12-29T00:51:47;6.98;99.53
67722;SHT31;58309;45.292;11.820;2022-12-29T00:54:13;6.97;99.51
67722;SHT31;58309;45.292;11.820;2022-12-29T00:56:39;6.97;99.47
67722;SHT31;58309;45.292;11.820;2022-12-29T00:59:07;6.94;99.46
67722;SHT31;58309;45.292;11.820;2022-12-29T01:01:34;6.88;99.48
67722;SHT31;58309;45.292;11.820;2022-12-29T01:04:00;6.84;99.53
67722;SHT31;58309;45.292;11.820;2022-12-29T01:06:25;6.78;99.94
67722;SHT31;58309;45.292;11.820;2022-12-29T01:08:52;6.71;99.81
67722;SHT31;58309;45.292;11.820;2022-12-29T01:11:36;6.64;99.99
67722;SHT31;58309;45.292;11.820;2022-12-29T01:14:01;6.71;99.99
67722;SHT31;58309;45.292;11.820;2022-12-29T01:16:27;6.74;99.99
67722;SHT31;58309;45.292;11.820;2022-12-29T01:18:52;6.78;99.99
67722;SHT31;58309;45.292;11.820;2022-12-29T01:21:18;6.80;99.99
67722;SHT31;58309;45.292;11.820;2022-12-29T01:23:44;6.85;99.99
67722;SHT31;58309;45.292;11.820;2022-12-29T01:26:11;6.91;99.99
67722;SHT31;58309;45.292;11.820;2022-12-29T01:28:37;6.91;99.99
67722;SHT31;58309;45.292;11.820;2022-12-29T01:31:07;6.99;99.99
67722;SHT31;58309;45.292;11.820;2022-12-29T01:33:33;7.07;99.99
67722;SHT31;58309;45.292;11.820;2022-12-29T01:36:05;7.08;99.99
67722;SHT31;58309;45.292;11.820;2022-12-29T01:38:32;7.11;99.87
67722;SHT31;58309;45.292;11.820;2022-12-29T01:40:58;7.12;99.83
67722;SHT31;58309;45.292;11.820;2022-12-29T01:43:45;7.15;99.80
67722;SHT31;58309;45.292;11.820;2022-12-29T01:48:45;7.15;99.72
67722;SHT31;58309;45.292;11.820;2022-12-29T01:51:11;7.16;99.71
67722;SHT31;58309;45.292;11.820;2022-12-29T01:53:37;7.19;99.69
67722;SHT31;58309;45.292;11.820;2022-12-29T01:56:06;7.18;99.63
67722;SHT31;58309;45.292;11.820;2022-12-29T01:58:37;7.18;99.70
67722;SHT31;58309;45.292;11.820;2022-12-29T02:01:04;7.16;99.33
67722;SHT31;58309;45.292;11.820;2022-12-29T02:03:30;7.12;99.38
67722;SHT31;58309;45.292;11.820;2022-12-29T02:06:12;7.12;99.37
67722;SHT31;58309;45.292;11.820;2022-12-29T02:08:39;7.11;99.40
67722;SHT31;58309;45.292;11.820;2022-12-29T02:11:07;7.14;99.41
67722;SHT31;58309;45.292;11.820;2022-12-29T02:13:33;7.11;99.37
67722;SHT31;58309;45.292;11.820;2022-12-29T02:16:21;7.08;99.43
67722;SHT31;58309;45.292;11.820;2022-12-29T02:30:16;7.11;99.99
67722;SHT31;58309;45.292;11.820;2022-12-29T02:33:00;7.12;99.97
67722;SHT31;58309;45.292;11.820;2022-12-29T02:35:40;7.14;99.90
67722;SHT31;58309;45.292;11.820;2022-12-29T02:40:58;7.15;99.87
67722;SHT31;58309;45.292;11.820;2022-12-29T02:46:35;7.18;99.97
67722;SHT31;58309;45.292;11.820;2022-12-29T02:52:16;7.16;99.99
67722;SHT31;58309;45.292;11.820;2022-12-29T02:54:43;7.16;99.99
67722;SHT31;58309;45.292;11.820;2022-12-29T02:59:51;7.18;99.99
67722;SHT31;58309;45.292;11.820;2022-12-29T03:09:07;7.11;99.99
67722;SHT31;58309;45.292;11.820;2022-12-29T03:11:48;7.11;99.99
67722;SHT31;58309;45.292;11.820;2022-12-29T03:14:43;7.09;99.99
67722;SHT31;58309;45.292;11.820;2022-12-29T03:17:38;7.14;99.99
67722;SHT31;58309;45.292;11.820;2022-12-29T03:20:13;7.14;99.99
67722;SHT31;58309;45.292;11.820;2022-12-29T03:22:44;7.11;99.99
67722;SHT31;58309;45.292;11.820;2022-12-29T03:25:19;7.12;99.99
67722;SHT31;58309;45.292;11.820;2022-12-29T03:28:11;7.08;99.99
67722;SHT31;58309;45.292;11.820;2022-12-29T03:30:36;7.09;99.99
67722;SHT31;58309;45.292;11.820;2022-12-29T03:33:04;7.08;99.99
67722;SHT31;58309;45.292;11.820;2022-12-29T03:35:34;7.07;99.99
67722;SHT31;58309;45.292;11.820;2022-12-29T03:38:09;7.11;99.99
67722;SHT31;58309;45.292;11.820;2022-12-29T03:40:38;7.15;99.99
67722;SHT31;58309;45.292;11.820;2022-12-29T03:43:06;7.15;99.99
67722;SHT31;58309;45.292;11.820;2022-12-29T03:45:31;7.21;99.99
67722;SHT31;58309;45.292;11.820;2022-12-29T03:47:57;7.22;99.99
67722;SHT31;58309;45.292;11.820;2022-12-29T03:50:22;7.18;99.99
67722;SHT31;58309;45.292;11.820;2022-12-29T03:52:48;7.15;99.99
67722;SHT31;58309;45.292;11.820;2022-12-29T03:55:14;7.14;99.99
67722;SHT31;58309;45.292;11.820;2022-12-29T03:57:39;7.14;99.99
67722;SHT31;58309;45.292;11.820;2022-12-29T04:00:06;7.14;99.99
67722;SHT31;58309;45.292;11.820;2022-12-29T04:02:31;7.11;99.99
67722;SHT31;58309;45.292;11.820;2022-12-29T04:04:57;7.07;99.99
67722;SHT31;58309;45.292;11.820;2022-12-29T04:07:22;7.08;99.99
67722;SHT31;58309;45.292;11.820;2022-12-29T04:09:48;7.04;99.99
67722;SHT31;58309;45.292;11.820;2022-12-29T04:12:13;7.04;99.99
67722;SHT31;58309;45.292;11.820;2022-12-29T04:14:40;7.05;99.99
67722;SHT31;58309;45.292;11.820;2022-12-29T04:17:05;7.04;99.99
67722;SHT31;58309;45.292;11.820;2022-12-29T04:19:31;7.02;99.99
67722;SHT31;58309;45.292;11.820;2022-12-29T04:21:56;6.99;99.99
67722;SHT31;58309;45.292;11.820;2022-12-29T04:24:22;6.97;99.99
67722;SHT31;58309;45.292;11.820;2022-12-29T04:26:47;6.97;99.99
67722;SHT31;58309;45.292;11.820;2022-12-29T04:29:13;6.94;99.99
67722;SHT31;58309;45.292;11.820;2022-12-29T04:31:38;6.91;99.99
67722;SHT31;58309;45.292;11.820;2022-12-29T04:34:04;6.90;99.99
67722;SHT31;58309;45.292;11.820;2022-12-29T04:36:29;6.88;99.99
67722;SHT31;58309;45.292;11.820;2022-12-29T04:38:55;6.85;99.99
67722;SHT31;58309;45.292;11.820;2022-12-29T04:41:20;6.84;99.99
67722;SHT31;58309;45.292;11.820;2022-12-29T04:43:46;6.81;99.99
67722;SHT31;58309;45.292;11.820;2022-12-29T04:46:11;6.77;99.99
67722;SHT31;58309;45.292;11.820;2022-12-29T04:48:37;6.74;99.81
67722;SHT31;58309;45.292;11.820;2022-12-29T04:51:02;6.71;99.46
67722;SHT31;58309;45.292;11.820;2022-12-29T04:53:28;6.67;98.53
67722;SHT31;58309;45.292;11.820;2022-12-29T04:55:54;6.64;98.69
67722;SHT31;58309;45.292;11.820;2022-12-29T04:58:21;6.68;98.51
67722;SHT31;58309;45.292;11.820;2022-12-29T05:00:47;6.64;97.42
67722;SHT31;58309;45.292;11.820;2022-12-29T05:03:12;6.63;97.50
67722;SHT31;58309;45.292;11.820;2022-12-29T05:05:38;6.60;97.79
67722;SHT31;58309;45.292;11.820;2022-12-29T05:08:04;6.57;97.95
67722;SHT31;58309;45.292;11.820;2022-12-29T05:10:29;6.54;98.17
67722;SHT31;58309;45.292;11.820;2022-12-29T05:12:55;6.58;98.48
67722;SHT31;58309;45.292;11.820;2022-12-29T05:15:21;6.58;98.94
67722;SHT31;58309;45.292;11.820;2022-12-29T05:18:15;6.60;99.36
67722;SHT31;58309;45.292;11.820;2022-12-29T05:20:40;6.61;99.46
67722;SHT31;58309;45.292;11.820;2022-12-29T05:23:06;6.58;99.65
67722;SHT31;58309;45.292;11.820;2022-12-29T05:25:32;6.60;99.99
67722;SHT31;58309;45.292;11.820;2022-12-29T05:27:57;6.57;99.99
67722;SHT31;58309;45.292;11.820;2022-12-29T05:30:23;6.60;99.99
67722;SHT31;58309;45.292;11.820;2022-12-29T05:32:48;6.63;99.99
67722;SHT31;58309;45.292;11.820;2022-12-29T05:35:14;6.60;99.99
67722;SHT31;58309;45.292;11.820;2022-12-29T05:37:39;6.64;99.99
67722;SHT31;58309;45.292;11.820;2022-12-29T05:40:05;6.60;99.99
67722;SHT31;58309;45.292;11.820;2022-12-29T05:42:31;6.60;99.99
67722;SHT31;58309;45.292;11.820;2022-12-29T05:44:57;6.61;99.99
67722;SHT31;58309;45.292;11.820;2022-12-29T05:47:23;6.64;99.99
67722;SHT31;58309;45.292;11.820;2022-12-29T05:49:48;6.61;99.99
67722;SHT31;58309;45.292;11.820;2022-12-29T05:52:42;6.61;99.99
67722;SHT31;58309;45.292;11.820;2022-12-29T05:55:08;6.60;99.99
67722;SHT31;58309;45.292;11.820;2022-12-29T05:57:34;6.56;99.99
67722;SHT31;58309;45.292;11.820;2022-12-29T05:59:59;6.49;99.99
67722;SHT31;58309;45.292;11.820;2022-12-29T06:02:25;6.34;99.99
67722;SHT31;58309;45.292;11.820;2022-12-29T06:04:50;6.22;99.99
67722;SHT31;58309;45.292;11.820;2022-12-29T06:07:16;6.22;99.99
67722;SHT31;58309;45.292;11.820;2022-12-29T06:09:42;6.26;99.99
67722;SHT31;58309;45.292;11.820;2022-12-29T06:12:07;6.29;99.99
67722;SHT31;58309;45.292;11.820;2022-12-29T06:14:33;6.32;99.99
67722;SHT31;58309;45.292;11.820;2022-12-29T06:16:58;6.26;99.99
67722;SHT31;58309;45.292;11.820;2022-12-29T06:19:25;6.22;99.99
67722;SHT31;58309;45.292;11.820;2022-12-29T06:21:50;6.22;99.99
67722;SHT31;58309;45.292;11.820;2022-12-29T06:24:17;6.23;99.99
67722;SHT31;58309;45.292;11.820;2022-12-29T06:26:43;6.29;99.99
67722;SHT31;58309;45.292;11.820;2022-12-29T06:29:09;6.29;99.99
67722;SHT31;58309;45.292;11.820;2022-12-29T06:31:34;6.40;99.99
67722;SHT31;58309;45.292;11.820;2022-12-29T06:34:00;6.43;99.57
67722;SHT31;58309;45.292;11.820;2022-12-29T06:36:25;6.39;99.11
67722;SHT31;58309;45.292;11.820;2022-12-29T06:38:51;6.36;99.63
67722;SHT31;58309;45.292;11.820;2022-12-29T06:41:20;6.36;99.71
67722;SHT31;58309;45.292;11.820;2022-12-29T06:43:46;6.41;99.72
67722;SHT31;58309;45.292;11.820;2022-12-29T06:46:12;6.46;99.91
67722;SHT31;58309;45.292;11.820;2022-12-29T06:48:37;6.51;99.99
67722;SHT31;58309;45.292;11.820;2022-12-29T06:51:03;6.53;99.89
67722;SHT31;58309;45.292;11.820;2022-12-29T06:53:29;6.57;99.89
67722;SHT31;58309;45.292;11.820;2022-12-29T06:55:54;6.61;99.79
67722;SHT31;58309;45.292;11.820;2022-12-29T06:58:21;6.64;99.89
67722;SHT31;58309;45.292;11.820;2022-12-29T07:00:47;6.66;99.79
67722;SHT31;58309;45.292;11.820;2022-12-29T07:03:13;6.68;99.42
67722;SHT31;58309;45.292;11.820;2022-12-29T07:05:39;6.70;99.47
67722;SHT31;58309;45.292;11.820;2022-12-29T07:08:04;6.70;98.74
67722;SHT31;58309;45.292;11.820;2022-12-29T07:10:31;6.70;99.13
67722;SHT31;58309;45.292;11.820;2022-12-29T07:12:56;6.77;99.32
67722;SHT31;58309;45.292;11.820;2022-12-29T07:15:22;6.78;99.28
67722;SHT31;58309;45.292;11.820;2022-12-29T07:17:47;6.80;99.10
67722;SHT31;58309;45.292;11.820;2022-12-29T07:20:15;6.83;99.07
67722;SHT31;58309;45.292;11.820;2022-12-29T07:22:41;6.83;98.56
67722;SHT31;58309;45.292;11.820;2022-12-29T07:25:07;6.84;98.95
67722;SHT31;58309;45.292;11.820;2022-12-29T07:27:33;6.81;98.64
67722;SHT31;58309;45.292;11.820;2022-12-29T07:29:58;6.83;99.02
67722;SHT31;58309;45.292;11.820;2022-12-29T07:32:24;6.87;99.06
67722;SHT31;58309;45.292;11.820;2022-12-29T07:34:50;6.91;99.15
67722;SHT31;58309;45.292;11.820;2022-12-29T07:37:15;6.97;99.17
67722;SHT31;58309;45.292;11.820;2022-12-29T07:39:41;7.04;99.06
67722;SHT31;58309;45.292;11.820;2022-12-29T07:42:07;7.05;98.69
67722;SHT31;58309;45.292;11.820;2022-12-29T07:44:32;7.09;98.66
67722;SHT31;58309;45.292;11.820;2022-12-29T07:46:58;7.09;98.01
67722;SHT31;58309;45.292;11.820;2022-12-29T07:49:23;7.16;98.04
67722;SHT31;58309;45.292;11.820;2022-12-29T07:51:49;7.19;98.11
67722;SHT31;58309;45.292;11.820;2022-12-29T07:54:15;7.23;98.09
67722;SHT31;58309;45.292;11.820;2022-12-29T07:56:43;7.28;97.73
67722;SHT31;58309;45.292;11.820;2022-12-29T07:59:09;7.30;97.74
67722;SHT31;58309;45.292;11.820;2022-12-29T08:01:34;7.36;97.83
67722;SHT31;58309;45.292;11.820;2022-12-29T08:04:00;7.36;97.73
67722;SHT31;58309;45.292;11.820;2022-12-29T08:06:25;7.40;97.58
67722;SHT31;58309;45.292;11.820;2022-12-29T08:08:51;7.43;97.31
67722;SHT31;58309;45.292;11.820;2022-12-29T08:11:17;7.45;97.41
67722;SHT31;58309;45.292;11.820;2022-12-29T08:13:42;7.49;97.63
67722;SHT31;58309;45.292;11.820;2022-12-29T08:16:08;7.48;96.47
67722;SHT31;58309;45.292;11.820;2022-12-29T08:18:33;7.50;96.82
67722;SHT31;58309;45.292;11.820;2022-12-29T08:21:03;7.55;96.62
67722;SHT31;58309;45.292;11.820;2022-12-29T08:23:29;7.58;96.48
67722;SHT31;58309;45.292;11.820;2022-12-29T08:25:59;7.65;96.93
67722;SHT31;58309;45.292;11.820;2022-12-29T08:28:25;7.67;96.36
67722;SHT31;58309;45.292;11.820;2022-12-29T08:30:51;7.67;96.18
67722;SHT31;58309;45.292;11.820;2022-12-29T08:33:17;7.65;95.39
67722;SHT31;58309;45.292;11.820;2022-12-29T08:35:42;7.73;96.19
67722;SHT31;58309;45.292;11.820;2022-12-29T08:38:08;7.77;95.88
67722;SHT31;58309;45.292;11.820;2022-12-29T08:40:36;7.84;95.79
67722;SHT31;58309;45.292;11.820;2022-12-29T08:43:01;7.94;96.04
67722;SHT31;58309;45.292;11.820;2022-12-29T08:45:27;8.02;95.81
67722;SHT31;58309;45.292;11.820;2022-12-29T08:47:52;8.08;95.86
67722;SHT31;58309;45.292;11.820;2022-12-29T08:50:18;8.05;96.20
67722;SHT31;58309;45.292;11.820;2022-12-29T08:52:43;7.98;96.26
67722;SHT31;58309;45.292;11.820;2022-12-29T08:55:09;7.97;97.13
67722;SHT31;58309;45.292;11.820;2022-12-29T08:57:34;7.97;96.80
67722;SHT31;58309;45.292;11.820;2022-12-29T09:00:00;8.02;97.58
67722;SHT31;58309;45.292;11.820;2022-12-29T09:02:26;8.07;97.64
67722;SHT31;58309;45.292;11.820;2022-12-29T09:04:51;8.11;97.66
67722;SHT31;58309;45.292;11.820;2022-12-29T09:07:17;8.20;97.90
67722;SHT31;58309;45.292;11.820;2022-12-29T09:09:42;8.27;97.70
67722;SHT31;58309;45.292;11.820;2022-12-29T09:12:08;8.31;96.61
67722;SHT31;58309;45.292;11.820;2022-12-29T09:14:33;8.39;96.49
67722;SHT31;58309;45.292;11.820;2022-12-29T09:16:59;8.49;95.93
67722;SHT31;58309;45.292;11.820;2022-12-29T09:19:43;8.63;95.91
67722;SHT31;58309;45.292;11.820;2022-12-29T09:22:08;8.52;95.06
67722;SHT31;58309;45.292;11.820;2022-12-29T09:24:34;8.41;95.76
67722;SHT31;58309;45.292;11.820;2022-12-29T09:26:59;8.31;96.54
67722;SHT31;58309;45.292;11.820;2022-12-29T09:29:25;8.17;95.75
67722;SHT31;58309;45.292;11.820;2022-12-29T09:31:50;8.07;95.42
67722;SHT31;58309;45.292;11.820;2022-12-29T09:34:16;8.05;96.22
67722;SHT31;58309;45.292;11.820;2022-12-29T09:36:41;7.97;95.91
67722;SHT31;58309;45.292;11.820;2022-12-29T09:39:07;7.97;97.09
67722;SHT31;58309;45.292;11.820;2022-12-29T09:41:42;7.91;97.49
67722;SHT31;58309;45.292;11.820;2022-12-29T09:44:20;8.00;97.12
67722;SHT31;58309;45.292;11.820;2022-12-29T09:46:49;7.97;96.66
67722;SHT31;58309;45.292;11.820;2022-12-29T09:49:23;8.01;96.25
67722;SHT31;58309;45.292;11.820;2022-12-29T09:51:54;8.01;96.42
67722;SHT31;58309;45.292;11.820;2022-12-29T09:56:53;8.18;97.42
67722;SHT31;58309;45.292;11.820;2022-12-29T09:59:23;8.24;96.24
67722;SHT31;58309;45.292;11.820;2022-12-29T10:02:03;8.34;95.73
67722;SHT31;58309;45.292;11.820;2022-12-29T10:04:30;8.41;96.40
67722;SHT31;58309;45.292;11.820;2022-12-29T10:07:10;8.41;96.69
67722;SHT31;58309;45.292;11.820;2022-12-29T10:15:47;8.34;95.55
67722;SHT31;58309;45.292;11.820;2022-12-29T10:20:58;8.48;94.74
67722;SHT31;58309;45.292;11.820;2022-12-29T10:23:42;8.69;95.17
67722;SHT31;58309;45.292;11.820;2022-12-29T10:26:18;8.86;93.73
67722;SHT31;58309;45.292;11.820;2022-12-29T10:29:03;8.70;92.10
67722;SHT31;58309;45.292;11.820;2022-12-29T10:31:39;8.58;92.57
67722;SHT31;58309;45.292;11.820;2022-12-29T10:34:21;8.51;93.67
67722;SHT31;58309;45.292;11.820;2022-12-29T10:36:49;8.48;93.94
67722;SHT31;58309;45.292;11.820;2022-12-29T10:39:21;8.48;93.42
67722;SHT31;58309;45.292;11.820;2022-12-29T10:42:09;8.49;93.56
67722;SHT31;58309;45.292;11.820;2022-12-29T10:44:36;8.55;93.37
67722;SHT31;58309;45.292;11.820;2022-12-29T10:47:04;8.59;93.90
67722;SHT31;58309;45.292;11.820;2022-12-29T10:49:34;8.68;93.70
67722;SHT31;58309;45.292;11.820;2022-12-29T10:52:03;8.61;92.71
67722;SHT31;58309;45.292;11.820;2022-12-29T10:54:31;8.51;93.30
67722;SHT31;58309;45.292;11.820;2022-12-29T10:57:04;8.48;93.99
67722;SHT31;58309;45.292;11.820;2022-12-29T10:59:33;8.52;95.56
67722;SHT31;58309;45.292;11.820;2022-12-29T11:07:09;8.39;96.29
67722;SHT31;58309;45.292;11.820;2022-12-29T11:09:38;8.48;96.73
67722;SHT31;58309;45.292;11.820;2022-12-29T11:12:24;8.68;96.72
67722;SHT31;58309;45.292;11.820;2022-12-29T11:17:56;8.93;95.21
67722;SHT31;58309;45.292;11.820;2022-12-29T11:22:57;9.14;95.81
67722;SHT31;58309;45.292;11.820;2022-12-29T11:25:23;9.23;94.69
67722;SHT31;58309;45.292;11.820;2022-12-29T11:28:14;9.23;94.37
67722;SHT31;58309;45.292;11.820;2022-12-29T11:30:39;9.31;95.24
67722;SHT31;58309;45.292;11.820;2022-12-29T11:33:05;9.33;94.11
67722;SHT31;58309;45.292;11.820;2022-12-29T11:35:44;9.58;94.50
67722;SHT31;58309;45.292;11.820;2022-12-29T11:38:19;10.05;92.77
67722;SHT31;58309;45.292;11.820;2022-12-29T11:40:46;10.20;91.91
67722;SHT31;58309;45.292;11.820;2022-12-29T11:45:59;9.85;91.91
67722;SHT31;58309;45.292;11.820;2022-12-29T11:48:29;9.65;93.04
67722;SHT31;58309;45.292;11.820;2022-12-29T11:50:58;9.54;94.60
67722;SHT31;58309;45.292;11.820;2022-12-29T11:53:52;9.59;94.49
67722;SHT31;58309;45.292;11.820;2022-12-29T11:56:32;9.86;94.40
67722;SHT31;58309;45.292;11.820;2022-12-29T11:58:58;10.08;93.56
67722;SHT31;58309;45.292;11.820;2022-12-29T12:01:45;10.17;93.19
67722;SHT31;58309;45.292;11.820;2022-12-29T12:04:16;10.08;91.39
67722;SHT31;58309;45.292;11.820;2022-12-29T12:06:58;10.01;91.34
67722;SHT31;58309;45.292;11.820;2022-12-29T12:09:31;9.98;91.81
67722;SHT31;58309;45.292;11.820;2022-12-29T12:11:59;9.81;93.31
67722;SHT31;58309;45.292;11.820;2022-12-29T12:14:40;9.75;93.47
67722;SHT31;58309;45.292;11.820;2022-12-29T12:20:27;9.55;93.83
67722;SHT31;58309;45.292;11.820;2022-12-29T12:25:43;9.64;94.20
67722;SHT31;58309;45.292;11.820;2022-12-29T12:28:37;9.67;93.71
67722;SHT31;58309;45.292;11.820;2022-12-29T12:31:15;9.67;94.27
67722;SHT31;58309;45.292;11.820;2022-12-29T12:33:46;9.68;95.15
67722;SHT31;58309;45.292;11.820;2022-12-29T12:39:32;9.58;95.36
67722;SHT31;58309;45.292;11.820;2022-12-29T12:45:15;9.68;95.51
67722;SHT31;58309;45.292;11.820;2022-12-29T12:50:40;9.55;95.81
67722;SHT31;58309;45.292;11.820;2022-12-29T12:53:44;9.48;95.95
67722;SHT31;58309;45.292;11.820;2022-12-29T12:56:37;9.58;96.33
67722;SHT31;58309;45.292;11.820;2022-12-29T12:59:26;9.67;96.40
67722;SHT31;58309;45.292;11.820;2022-12-29T13:04:32;9.55;96.32
67722;SHT31;58309;45.292;11.820;2022-12-29T13:10:30;9.64;97.22
67722;SHT31;58309;45.292;11.820;2022-12-29T13:13:22;9.72;97.35
67722;SHT31;58309;45.292;11.820;2022-12-29T13:15:57;9.71;97.17
67722;SHT31;58309;45.292;11.820;2022-12-29T13:24:09;9.59;97.79
67722;SHT31;58309;45.292;11.820;2022-12-29T13:26:46;9.51;98.06
67722;SHT31;58309;45.292;11.820;2022-12-29T13:29:36;9.44;98.12
67722;SHT31;58309;45.292;11.820;2022-12-29T13:40:44;9.37;98.44
67722;SHT31;58309;45.292;11.820;2022-12-29T13:43:13;9.35;98.68
67722;SHT31;58309;45.292;11.820;2022-12-29T13:45:39;9.34;99.04
67722;SHT31;58309;45.292;11.820;2022-12-29T13:48:17;9.34;98.85
67722;SHT31;58309;45.292;11.820;2022-12-29T13:50:53;9.26;99.31
67722;SHT31;58309;45.292;11.820;2022-12-29T13:58:37;9.23;99.64
67722;SHT31;58309;45.292;11.820;2022-12-29T14:01:09;9.21;99.74
67722;SHT31;58309;45.292;11.820;2022-12-29T14:03:54;9.21;99.91
67722;SHT31;58309;45.292;11.820;2022-12-29T14:06:26;9.21;99.92
67722;SHT31;58309;45.292;11.820;2022-12-29T14:09:04;9.20;99.99
67722;SHT31;58309;45.292;11.820;2022-12-29T14:11:32;9.21;99.99
67722;SHT31;58309;45.292;11.820;2022-12-29T14:14:09;9.23;99.99
67722;SHT31;58309;45.292;11.820;2022-12-29T14:16:37;9.19;99.99
67722;SHT31;58309;45.292;11.820;2022-12-29T14:19:29;9.16;99.99
67722;SHT31;58309;45.292;11.820;2022-12-29T14:21:59;9.11;99.99
67722;SHT31;58309;45.292;11.820;2022-12-29T14:24:27;9.09;99.99
67722;SHT31;58309;45.292;11.820;2022-12-29T14:26:52;9.10;99.99
67722;SHT31;58309;45.292;11.820;2022-12-29T14:31:47;9.09;99.99
67722;SHT31;58309;45.292;11.820;2022-12-29T14:39:32;9.13;99.99
67722;SHT31;58309;45.292;11.820;2022-12-29T14:42:20;9.09;99.99
67722;SHT31;58309;45.292;11.820;2022-12-29T14:45:27;9.07;99.99
67722;SHT31;58309;45.292;11.820;2022-12-29T14:47:54;9.07;99.99
67722;SHT31;58309;45.292;11.820;2022-12-29T14:50:38;9.09;99.99
67722;SHT31;58309;45.292;11.820;2022-12-29T14:53:06;9.07;99.99
67722;SHT31;58309;45.292;11.820;2022-12-29T14:58:27;9.01;99.99
67722;SHT31;58309;45.292;11.820;2022-12-29T15:00:57;9.00;99.99
67722;SHT31;58309;45.292;11.820;2022-12-29T15:03:28;9.00;99.99
67722;SHT31;58309;45.292;11.820;2022-12-29T15:06:06;8.99;99.99
67722;SHT31;58309;45.292;11.820;2022-12-29T15:08:42;8.96;99.99
67722;SHT31;58309;45.292;11.820;2022-12-29T15:11:15;8.93;99.99
67722;SHT31;58309;45.292;11.820;2022-12-29T15:13:42;8.93;99.99
67722;SHT31;58309;45.292;11.820;2022-12-29T15:16:24;8.90;99.99
67722;SHT31;58309;45.292;11.820;2022-12-29T15:18:49;8.89;99.99
67722;SHT31;58309;45.292;11.820;2022-12-29T15:21:16;8.90;99.99
67722;SHT31;58309;45.292;11.820;2022-12-29T15:23:43;8.89;99.99
67722;SHT31;58309;45.292;11.820;2022-12-29T15:26:11;8.89;99.99
67722;SHT31;58309;45.292;11.820;2022-12-29T15:28:42;8.84;99.99
67722;SHT31;58309;45.292;11.820;2022-12-29T15:31:16;8.87;99.99
67722;SHT31;58309;45.292;11.820;2022-12-29T15:33:44;8.87;99.99
67722;SHT31;58309;45.292;11.820;2022-12-29T15:36:18;8.86;99.99
67722;SHT31;58309;45.292;11.820;2022-12-29T15:38:45;8.86;99.99
67722;SHT31;58309;45.292;11.820;2022-12-29T15:41:39;8.82;99.99
67722;SHT31;58309;45.292;11.820;2022-12-29T15:47:02;8.79;99.99
67722;SHT31;58309;45.292;11.820;2022-12-29T15:49:28;8.77;99.99
67722;SHT31;58309;45.292;11.820;2022-12-29T15:51:54;8.77;99.99
67722;SHT31;58309;45.292;11.820;2022-12-29T15:54:21;8.76;99.99
67722;SHT31;58309;45.292;11.820;2022-12-29T15:56:49;8.69;99.99
67722;SHT31;58309;45.292;11.820;2022-12-29T15:59:31;8.72;99.99
67722;SHT31;58309;45.292;11.820;2022-12-29T16:01:58;8.70;99.99
67722;SHT31;58309;45.292;11.820;2022-12-29T16:04:27;8.70;99.99
67722;SHT31;58309;45.292;11.820;2022-12-29T16:07:02;8.68;99.99
67722;SHT31;58309;45.292;11.820;2022-12-29T16:11:58;8.66;99.99
67722;SHT31;58309;45.292;11.820;2022-12-29T16:14:31;8.63;99.99
67722;SHT31;58309;45.292;11.820;2022-12-29T16:17:01;8.65;99.99
67722;SHT31;58309;45.292;11.820;2022-12-29T16:19:33;8.62;99.99
67722;SHT31;58309;45.292;11.820;2022-12-29T16:22:00;8.59;99.99
67722;SHT31;58309;45.292;11.820;2022-12-29T16:24:30;8.55;99.99
67722;SHT31;58309;45.292;11.820;2022-12-29T16:27:02;8.52;99.99
67722;SHT31;58309;45.292;11.820;2022-12-29T16:29:32;8.51;99.99
67722;SHT31;58309;45.292;11.820;2022-12-29T16:32:00;8.45;99.99
67722;SHT31;58309;45.292;11.820;2022-12-29T16:37:19;8.35;99.99
67722;SHT31;58309;45.292;11.820;2022-12-29T16:39:48;8.37;99.99
67722;SHT31;58309;45.292;11.820;2022-12-29T16:42:36;8.31;99.99
67722;SHT31;58309;45.292;11.820;2022-12-29T16:50:41;8.25;99.99
67722;SHT31;58309;45.292;11.820;2022-12-29T16:53:20;8.21;99.99
67722;SHT31;58309;45.292;11.820;2022-12-29T16:55:52;8.21;99.99
67722;SHT31;58309;45.292;11.820;2022-12-29T16:58:24;8.21;99.99
67722;SHT31;58309;45.292;11.820;2022-12-29T17:00:53;8.21;99.99
67722;SHT31;58309;45.292;11.820;2022-12-29T17:03:20;8.20;99.99
67722;SHT31;58309;45.292;11.820;2022-12-29T17:05:46;8.21;99.99
67722;SHT31;58309;45.292;11.820;2022-12-29T17:08:21;8.22;99.99
67722;SHT31;58309;45.292;11.820;2022-12-29T17:10:53;8.20;99.99
67722;SHT31;58309;45.292;11.820;2022-12-29T17:13:38;8.20;99.99
67722;SHT31;58309;45.292;11.820;2022-12-29T17:16:10;8.20;99.99
67722;SHT31;58309;45.292;11.820;2022-12-29T17:18:36;8.20;99.99
67722;SHT31;58309;45.292;11.820;2022-12-29T17:21:02;8.18;99.99
67722;SHT31;58309;45.292;11.820;2022-12-29T17:23:29;8.22;99.99
67722;SHT31;58309;45.292;11.820;2022-12-29T17:25:56;8.20;99.99
67722;SHT31;58309;45.292;11.820;2022-12-29T17:28:28;8.21;99.99
67722;SHT31;58309;45.292;11.820;2022-12-29T17:31:05;8.15;99.99
67722;SHT31;58309;45.292;11.820;2022-12-29T17:33:37;8.18;99.99
67722;SHT31;58309;45.292;11.820;2022-12-29T17:36:03;8.15;99.99
67722;SHT31;58309;45.292;11.820;2022-12-29T17:38:30;8.15;99.99
67722;SHT31;58309;45.292;11.820;2022-12-29T17:40:57;8.15;99.99
67722;SHT31;58309;45.292;11.820;2022-12-29T17:43:23;8.14;99.99
67722;SHT31;58309;45.292;11.820;2022-12-29T17:45:58;8.14;99.99
67722;SHT31;58309;45.292;11.820;2022-12-29T17:48:24;8.11;99.99
67722;SHT31;58309;45.292;11.820;2022-12-29T17:50:53;8.10;99.99
67722;SHT31;58309;45.292;11.820;2022-12-29T17:53:21;8.12;99.99